Time;durP1;ratioP1;P1;durP2;ratioP2;P2;SDS_P1;SDS_P2;PMS_P1;PMS_P2;Temp;Humidity;BMP_temperature;BMP_pressure;BME280_temperature;BME280_humidity;BME280_pressure;Samples;Min_cycle;Max_cycle;Signal;HPM_P1;HPM_P2
2022/09/15 00:00:56;;;;;;;4.30;2.22;;;12.70;99.90;;;;;;5092231;28;20451;-54
2022/09/15 00:03:23;;;;;;;3.78;2.40;;;12.70;99.90;;;;;;5093684;28;20043;-56
2022/09/15 00:05:50;;;;;;;5.10;2.63;;;12.70;99.90;;;;;;5093502;28;20100;-55
2022/09/15 00:08:16;;;;;;;6.03;2.83;;;12.60;99.90;;;;;;5088111;28;21180;-55
2022/09/15 00:10:57;;;;;;;6.13;2.67;;;12.70;99.90;;;;;;5091318;28;20560;-55
2022/09/15 00:13:24;;;;;;;6.85;2.20;;;12.70;99.90;;;;;;5092927;28;20115;-54
2022/09/15 00:15:50;;;;;;;4.32;2.33;;;12.70;99.90;;;;;;5078852;27;20062;-55
2022/09/15 00:18:17;;;;;;;4.03;2.72;;;12.70;99.90;;;;;;5094784;27;20408;-55
2022/09/15 00:20:44;;;;;;;4.82;2.72;;;12.80;99.90;;;;;;5076382;27;20104;-56
2022/09/15 00:23:13;;;;;;;5.47;2.90;;;12.80;99.90;;;;;;5085180;27;20054;-56
2022/09/15 00:25:47;;;;;;;4.70;3.30;;;12.80;99.90;;;;;;5097861;27;20514;-55
2022/09/15 00:28:15;;;;;;;3.90;2.85;;;12.80;99.90;;;;;;5094000;27;20060;-56
2022/09/15 00:30:43;;;;;;;6.00;3.30;;;12.80;99.90;;;;;;5096974;27;20058;-56
2022/09/15 00:33:10;;;;;;;10.95;3.50;;;12.90;99.90;;;;;;5090773;27;20120;-56
2022/09/15 00:35:41;;;;;;;6.20;3.92;;;13.00;99.90;;;;;;5098755;27;20268;-53
2022/09/15 00:38:09;;;;;;;5.85;3.90;;;13.00;99.90;;;;;;5080899;27;20044;-56
2022/09/15 00:40:48;;;;;;;6.22;4.32;;;13.10;99.90;;;;;;5095512;27;20034;-55
2022/09/15 00:43:16;;;;;;;8.68;4.97;;;13.20;99.90;;;;;;5094760;27;20184;-56
2022/09/15 00:45:43;;;;;;;6.68;4.53;;;13.30;99.90;;;;;;5092519;27;20051;-56
2022/09/15 00:48:14;;;;;;;5.97;5.28;;;13.30;99.90;;;;;;5078266;27;20092;-46
2022/09/15 00:50:44;;;;;;;8.98;5.45;;;13.40;99.90;;;;;;5093842;27;20063;-48
2022/09/15 00:53:12;;;;;;;8.30;5.70;;;13.40;99.90;;;;;;5090475;27;20054;-49
2022/09/15 00:55:43;;;;;;;7.70;5.45;;;13.50;99.90;;;;;;5094554;27;20052;-50
2022/09/15 00:58:39;;;;;;;9.82;5.70;;;13.60;99.90;;;;;;5098257;27;20044;-50
2022/09/15 01:01:07;;;;;;;9.82;5.60;;;13.60;99.90;;;;;;5094392;27;20096;-47
2022/09/15 01:03:34;;;;;;;9.95;5.78;;;13.70;99.90;;;;;;5097846;27;20038;-50
2022/09/15 01:06:14;;;;;;;10.73;6.20;;;13.70;99.90;;;;;;5099161;27;20105;-47
2022/09/15 01:08:55;;;;;;;6.65;5.70;;;13.80;99.90;;;;;;5095577;27;20043;-50
2022/09/15 01:11:21;;;;;;;8.13;6.78;;;13.90;99.90;;;;;;5078932;27;20399;-56
2022/09/15 01:13:48;;;;;;;8.40;7.40;;;13.90;99.90;;;;;;5095940;27;20138;-56
2022/09/15 01:16:27;;;;;;;9.90;7.13;;;13.90;99.90;;;;;;5096164;27;20097;-55
2022/09/15 01:19:15;;;;;;;10.27;6.82;;;13.90;99.90;;;;;;5079925;27;20379;-57
2022/09/15 01:21:52;;;;;;;11.20;6.70;;;13.90;99.90;;;;;;5097099;27;20048;-49
2022/09/15 01:24:49;;;;;;;10.77;6.80;;;13.90;99.90;;;;;;5090933;27;20051;-57
2022/09/15 01:27:33;;;;;;;10.63;5.72;;;14.00;99.90;;;;;;5096341;27;20055;-56
2022/09/15 01:30:10;;;;;;;9.35;5.65;;;13.90;99.90;;;;;;5057002;27;20054;-56
2022/09/15 01:33:05;;;;;;;13.43;6.15;;;13.90;99.90;;;;;;5072571;27;20133;-56
2022/09/15 01:35:51;;;;;;;7.80;5.22;;;14.00;99.90;;;;;;5095196;27;20746;-57
2022/09/15 01:38:23;;;;;;;5.95;4.32;;;14.00;99.90;;;;;;5094095;27;20113;-49
2022/09/15 01:41:08;;;;;;;7.88;4.05;;;13.90;99.90;;;;;;5097106;27;20049;-55
2022/09/15 01:43:52;;;;;;;9.68;3.10;;;14.00;99.90;;;;;;5092770;27;20074;-55
2022/09/15 01:46:21;;;;;;;8.20;3.20;;;14.00;99.90;;;;;;5076983;27;20047;-45
2022/09/15 01:48:51;;;;;;;7.90;3.03;;;14.00;99.90;;;;;;5084907;27;20059;-45
2022/09/15 01:51:17;;;;;;;7.60;3.10;;;14.10;99.90;;;;;;5077110;27;20831;-48
2022/09/15 01:53:45;;;;;;;8.15;2.40;;;14.10;99.90;;;;;;5080202;27;20055;-47
2022/09/15 01:56:12;;;;;;;9.75;2.90;;;14.10;99.90;;;;;;5091108;27;20074;-46
2022/09/15 01:58:39;;;;;;;8.50;3.13;;;14.10;99.90;;;;;;5084931;27;20323;-44
2022/09/15 02:01:17;;;;;;;7.28;2.67;;;14.10;99.90;;;;;;5069375;27;20054;-48
2022/09/15 02:03:56;;;;;;;11.18;3.20;;;14.10;99.90;;;;;;5075646;27;20055;-48
2022/09/15 02:06:44;;;;;;;7.60;2.33;;;14.10;99.90;;;;;;5078723;27;20082;-47
2022/09/15 02:09:19;;;;;;;8.45;2.15;;;14.10;99.90;;;;;;5096967;27;20114;-45
2022/09/15 02:12:07;;;;;;;6.78;2.13;;;14.10;99.90;;;;;;5087666;27;20050;-45
2022/09/15 02:14:56;;;;;;;7.35;2.10;;;14.10;99.90;;;;;;5096143;27;20043;-54
2022/09/15 02:17:25;;;;;;;6.90;2.00;;;14.10;99.90;;;;;;5096728;27;20047;-50
2022/09/15 02:20:04;;;;;;;8.25;2.28;;;14.10;99.90;;;;;;5093487;27;20561;-48
2022/09/15 02:22:36;;;;;;;7.65;2.17;;;14.00;99.90;;;;;;5089458;27;20039;-54
2022/09/15 02:25:16;;;;;;;5.60;2.10;;;14.10;99.90;;;;;;5092465;27;20126;-55
2022/09/15 02:27:46;;;;;;;9.10;2.08;;;14.00;99.90;;;;;;5077660;27;20044;-50
2022/09/15 02:30:16;;;;;;;7.80;1.77;;;14.00;99.90;;;;;;5054810;27;20051;-54
2022/09/15 02:33:05;;;;;;;5.30;1.60;;;14.00;99.90;;;;;;5092588;27;20853;-54
2022/09/15 02:35:34;;;;;;;6.40;1.77;;;14.00;99.90;;;;;;5094293;27;20057;-49
2022/09/15 02:38:04;;;;;;;7.57;1.95;;;14.00;99.90;;;;;;5090603;27;20075;-44
2022/09/15 02:40:31;;;;;;;6.90;1.95;;;14.00;99.90;;;;;;5092956;27;20096;-48
2022/09/15 02:43:04;;;;;;;11.18;2.20;;;14.00;99.90;;;;;;5096102;27;20115;-45
2022/09/15 02:45:30;;;;;;;4.82;1.50;;;13.90;99.90;;;;;;5094387;27;20438;-44
2022/09/15 02:47:57;;;;;;;7.43;2.13;;;14.00;99.90;;;;;;5087520;27;20049;-49
2022/09/15 02:50:27;;;;;;;8.65;2.05;;;13.90;99.90;;;;;;5054300;27;20377;-48
2022/09/15 02:52:54;;;;;;;9.63;1.98;;;13.90;99.90;;;;;;5088526;27;20783;-44
2022/09/15 02:55:20;;;;;;;8.50;2.17;;;13.90;99.90;;;;;;5091992;27;20052;-45
2022/09/15 02:57:47;;;;;;;4.97;1.73;;;14.00;99.90;;;;;;5090427;27;20050;-48
2022/09/15 03:00:15;;;;;;;9.25;1.98;;;14.00;99.90;;;;;;5068270;27;20055;-47
2022/09/15 03:02:44;;;;;;;6.38;1.65;;;14.00;99.90;;;;;;5068131;28;20407;-51
2022/09/15 03:05:13;;;;;;;8.32;1.90;;;14.00;99.90;;;;;;5035680;28;20039;-50
2022/09/15 03:07:39;;;;;;;7.35;1.33;;;14.00;99.90;;;;;;5064199;27;20054;-48
2022/09/15 03:10:07;;;;;;;5.65;1.60;;;14.00;99.90;;;;;;5047654;28;20479;-55
2022/09/15 03:12:43;;;;;;;5.05;1.50;;;14.00;99.90;;;;;;5077758;27;20068;-55
2022/09/15 03:15:11;;;;;;;5.55;1.23;;;14.00;99.90;;;;;;5073640;27;20226;-43
2022/09/15 03:17:40;;;;;;;13.30;2.63;;;14.00;99.90;;;;;;5081291;27;20057;-44
2022/09/15 03:20:08;;;;;;;6.55;1.45;;;14.00;99.90;;;;;;5081826;28;20474;-49
2022/09/15 03:22:35;;;;;;;9.73;1.33;;;14.00;99.90;;;;;;5086553;28;20043;-51
2022/09/15 03:25:03;;;;;;;9.10;1.48;;;14.00;99.90;;;;;;5088181;27;20386;-56
2022/09/15 03:27:30;;;;;;;6.35;1.65;;;14.00;99.90;;;;;;5092463;28;20044;-56
2022/09/15 03:29:56;;;;;;;6.85;1.77;;;14.00;99.90;;;;;;5086749;28;20474;-55
2022/09/15 03:32:22;;;;;;;10.75;2.15;;;14.00;99.90;;;;;;5070335;28;20044;-56
2022/09/15 03:34:48;;;;;;;7.28;1.70;;;14.00;99.90;;;;;;5093304;28;20078;-56
2022/09/15 03:37:15;;;;;;;7.05;1.70;;;14.00;99.90;;;;;;5094250;28;20062;-56
2022/09/15 03:39:41;;;;;;;8.70;1.60;;;13.90;99.90;;;;;;5089232;28;20100;-56
2022/09/15 03:42:07;;;;;;;7.65;1.60;;;13.90;99.90;;;;;;5090528;28;20035;-56
2022/09/15 03:44:34;;;;;;;4.93;1.52;;;13.90;99.90;;;;;;5094483;28;20050;-56
2022/09/15 03:47:02;;;;;;;5.35;1.30;;;13.90;99.90;;;;;;5098329;28;20079;-56
2022/09/15 03:49:28;;;;;;;7.43;1.80;;;13.90;99.90;;;;;;5095604;28;20043;-56
2022/09/15 03:51:54;;;;;;;7.80;2.17;;;13.90;99.90;;;;;;5068905;27;20530;-56
2022/09/15 03:54:21;;;;;;;7.80;1.63;;;13.90;99.90;;;;;;5066887;27;20055;-56
2022/09/15 03:56:47;;;;;;;9.02;2.15;;;13.90;99.90;;;;;;5088167;27;20054;-56
2022/09/15 03:59:17;;;;;;;7.50;1.45;;;13.90;99.90;;;;;;5093135;27;20179;-57
2022/09/15 04:01:44;;;;;;;7.35;1.42;;;13.80;99.90;;;;;;5086133;27;20626;-56
2022/09/15 04:04:11;;;;;;;8.68;1.95;;;13.90;99.90;;;;;;5081860;27;20047;-47
2022/09/15 04:06:38;;;;;;;6.82;1.60;;;13.80;99.90;;;;;;5066942;27;20535;-55
2022/09/15 04:09:04;;;;;;;7.18;1.77;;;13.80;99.90;;;;;;5085829;27;22027;-57
2022/09/15 04:11:31;;;;;;;5.55;1.77;;;13.80;99.90;;;;;;5073145;27;20082;-44
2022/09/15 04:13:57;;;;;;;10.00;1.60;;;13.80;99.90;;;;;;5089216;27;20480;-51
2022/09/15 04:16:26;;;;;;;6.68;1.83;;;13.80;99.90;;;;;;5086382;27;20346;-46
2022/09/15 04:18:54;;;;;;;5.85;1.55;;;13.80;99.90;;;;;;5083797;27;20108;-48
2022/09/15 04:21:24;;;;;;;8.25;1.90;;;13.70;99.90;;;;;;5084116;27;20253;-47
2022/09/15 04:23:51;;;;;;;9.98;2.67;;;13.70;99.90;;;;;;5089664;27;20042;-44
2022/09/15 04:26:32;;;;;;;6.95;1.80;;;13.70;99.90;;;;;;5085207;27;20093;-45
2022/09/15 04:28:59;;;;;;;4.75;1.55;;;13.70;99.90;;;;;;5056309;27;20059;-45
2022/09/15 04:31:25;;;;;;;8.40;2.05;;;13.70;99.90;;;;;;5067762;28;20079;-56
2022/09/15 04:33:53;;;;;;;6.95;1.80;;;13.70;99.90;;;;;;5093216;27;20055;-56
2022/09/15 04:36:23;;;;;;;6.20;1.73;;;13.70;99.90;;;;;;5084658;27;20703;-55
2022/09/15 04:38:50;;;;;;;6.00;1.52;;;13.70;99.90;;;;;;5086138;27;20060;-56
2022/09/15 04:41:17;;;;;;;8.02;2.42;;;13.60;99.90;;;;;;5094152;27;20031;-56
2022/09/15 04:43:44;;;;;;;5.78;1.80;;;13.60;99.90;;;;;;5080391;27;20043;-54
2022/09/15 04:46:11;;;;;;;6.88;1.58;;;13.60;99.90;;;;;;5088682;27;20108;-44
2022/09/15 04:48:37;;;;;;;7.18;2.25;;;13.60;99.90;;;;;;5068329;28;20035;-44
2022/09/15 04:51:10;;;;;;;5.93;1.75;;;13.60;99.90;;;;;;5090706;27;20859;-45
2022/09/15 04:53:36;;;;;;;5.65;2.10;;;13.60;99.90;;;;;;5093435;27;20120;-46
2022/09/15 04:56:05;;;;;;;6.43;1.80;;;13.60;99.90;;;;;;5087019;27;20047;-44
2022/09/15 04:58:35;;;;;;;5.45;1.80;;;13.50;99.90;;;;;;5092314;27;20493;-46
2022/09/15 05:01:09;;;;;;;8.68;2.10;;;13.60;99.90;;;;;;5091422;27;20139;-49
2022/09/15 05:03:37;;;;;;;8.63;1.50;;;13.50;99.90;;;;;;5075119;27;21640;-45
2022/09/15 05:06:05;;;;;;;10.23;1.90;;;13.50;99.90;;;;;;5086495;27;20061;-46
2022/09/15 05:08:31;;;;;;;8.35;1.40;;;13.50;99.90;;;;;;5088739;27;20079;-47
2022/09/15 05:11:05;;;;;;;7.10;2.70;;;13.50;99.90;;;;;;5099037;27;20175;-46
2022/09/15 05:13:33;;;;;;;6.97;1.23;;;13.60;99.90;;;;;;5085977;28;20052;-45
2022/09/15 05:16:19;;;;;;;7.03;1.50;;;13.60;99.90;;;;;;5101038;27;20039;-44
2022/09/15 05:18:47;;;;;;;5.78;1.33;;;13.60;99.90;;;;;;5057682;27;20075;-44
2022/09/15 05:21:15;;;;;;;7.25;1.30;;;13.60;99.90;;;;;;5094196;27;20640;-45
2022/09/15 05:23:42;;;;;;;5.82;1.73;;;13.70;99.90;;;;;;5090221;27;20051;-45
2022/09/15 05:26:12;;;;;;;6.10;1.50;;;13.70;99.90;;;;;;5097437;28;20528;-44
2022/09/15 05:28:38;;;;;;;8.13;1.70;;;13.70;99.90;;;;;;5080273;28;20051;-46
2022/09/15 05:31:10;;;;;;;11.93;1.40;;;13.70;99.90;;;;;;5045727;28;20484;-44
2022/09/15 05:33:36;;;;;;;4.80;1.52;;;13.80;99.90;;;;;;5095369;27;20046;-45
2022/09/15 05:36:03;;;;;;;4.53;1.23;;;13.80;99.90;;;;;;5087545;27;21775;-51
2022/09/15 05:38:30;;;;;;;4.82;1.55;;;13.80;99.90;;;;;;5079249;28;20074;-46
2022/09/15 05:41:06;;;;;;;5.50;1.40;;;13.80;99.90;;;;;;5082293;28;20611;-45
2022/09/15 05:43:34;;;;;;;7.78;1.65;;;13.80;99.90;;;;;;5062980;27;20726;-44
2022/09/15 05:46:00;;;;;;;7.55;1.80;;;13.90;99.90;;;;;;5094154;27;20055;-46
2022/09/15 05:48:27;;;;;;;7.28;1.52;;;13.90;99.90;;;;;;5090025;27;20668;-44
2022/09/15 05:50:55;;;;;;;8.35;1.48;;;13.90;99.90;;;;;;5075280;27;20047;-46
2022/09/15 05:53:22;;;;;;;6.07;1.00;;;14.00;99.90;;;;;;5090164;27;20567;-46
2022/09/15 05:55:56;;;;;;;5.53;1.67;;;14.00;99.90;;;;;;5089043;27;20044;-50
2022/09/15 05:58:23;;;;;;;6.88;1.42;;;14.00;99.90;;;;;;5095104;27;20414;-54
2022/09/15 06:00:52;;;;;;;7.00;1.23;;;14.10;99.90;;;;;;5081409;28;20101;-44
2022/09/15 06:03:19;;;;;;;8.85;1.73;;;14.10;99.90;;;;;;5096868;27;20565;-55
2022/09/15 06:05:45;;;;;;;8.45;1.67;;;14.10;99.90;;;;;;5091908;27;20039;-54
2022/09/15 06:08:11;;;;;;;4.43;1.33;;;14.20;99.90;;;;;;5089854;27;20084;-46
2022/09/15 06:10:38;;;;;;;8.50;1.75;;;14.20;99.90;;;;;;5075480;27;20063;-53
2022/09/15 06:13:04;;;;;;;8.73;1.35;;;14.30;99.90;;;;;;5093481;27;20056;-53
2022/09/15 06:15:31;;;;;;;6.32;1.85;;;14.40;99.90;;;;;;5095138;27;20904;-54
2022/09/15 06:17:58;;;;;;;6.38;1.40;;;14.60;99.90;;;;;;5080472;28;20047;-56
2022/09/15 06:20:24;;;;;;;6.53;1.55;;;14.70;99.90;;;;;;5088539;28;20059;-56
2022/09/15 06:22:52;;;;;;;11.05;1.48;;;14.80;99.90;;;;;;5074509;27;20536;-54
2022/09/15 06:25:19;;;;;;;7.22;1.73;;;15.00;99.90;;;;;;5089525;27;20043;-56
2022/09/15 06:27:48;;;;;;;9.07;1.65;;;15.20;99.90;;;;;;5091122;27;20055;-52
2022/09/15 06:30:14;;;;;;;7.68;1.30;;;15.40;99.90;;;;;;5089373;27;20130;-55
2022/09/15 06:32:41;;;;;;;5.22;1.73;;;15.60;99.90;;;;;;5061633;27;21335;-54
2022/09/15 06:35:07;;;;;;;5.13;1.48;;;15.80;99.90;;;;;;5089063;27;20364;-56
2022/09/15 06:37:34;;;;;;;6.18;1.40;;;15.80;99.90;;;;;;5071279;27;20956;-53
2022/09/15 06:40:01;;;;;;;5.50;1.17;;;16.00;99.90;;;;;;5089246;27;20444;-54
2022/09/15 06:42:27;;;;;;;5.07;1.05;;;16.00;99.90;;;;;;5096344;27;20040;-55
2022/09/15 06:44:53;;;;;;;7.18;1.40;;;16.10;99.90;;;;;;5090739;27;20046;-54
2022/09/15 06:47:19;;;;;;;7.15;1.60;;;16.10;99.90;;;;;;5088035;27;21127;-54
2022/09/15 06:49:45;;;;;;;6.40;1.50;;;16.10;99.90;;;;;;5088026;27;20084;-55
2022/09/15 06:52:11;;;;;;;5.95;1.33;;;16.10;99.90;;;;;;5093091;27;20071;-54
2022/09/15 06:54:38;;;;;;;7.15;1.40;;;16.10;99.90;;;;;;5093218;27;20458;-53
2022/09/15 06:57:04;;;;;;;4.93;0.90;;;16.10;99.90;;;;;;5091833;27;20055;-55
2022/09/15 06:59:30;;;;;;;6.40;1.40;;;16.20;99.90;;;;;;5086413;27;20633;-45
2022/09/15 07:01:57;;;;;;;6.25;1.17;;;16.20;99.90;;;;;;5093616;27;20051;-49
2022/09/15 07:04:23;;;;;;;6.45;1.10;;;16.30;99.90;;;;;;5090481;27;20078;-54
2022/09/15 07:06:49;;;;;;;7.47;1.40;;;16.30;99.90;;;;;;5085852;27;20047;-53
2022/09/15 07:09:15;;;;;;;8.30;1.77;;;16.40;99.90;;;;;;5091646;27;20051;-54
2022/09/15 07:11:41;;;;;;;5.10;1.50;;;16.40;99.90;;;;;;5088619;27;20048;-54
2022/09/15 07:14:07;;;;;;;6.25;1.30;;;16.40;99.90;;;;;;5073627;28;20144;-53
2022/09/15 07:16:34;;;;;;;8.32;1.40;;;16.50;99.90;;;;;;5069801;27;20055;-54
2022/09/15 07:19:02;;;;;;;10.15;1.65;;;16.50;99.90;;;;;;5071590;28;20046;-54
2022/09/15 07:21:28;;;;;;;9.95;1.80;;;16.50;99.90;;;;;;5054589;28;20130;-54
2022/09/15 07:23:56;;;;;;;5.85;1.88;;;16.60;99.90;;;;;;5089686;27;20043;-54
2022/09/15 07:26:28;;;;;;;5.93;1.40;;;16.60;99.90;;;;;;5089275;27;20042;-53
2022/09/15 07:29:04;;;;;;;7.03;1.27;;;16.50;99.90;;;;;;5071014;28;20078;-54
2022/09/15 07:31:32;;;;;;;7.15;1.50;;;16.60;99.90;;;;;;5090131;28;20157;-54
2022/09/15 07:33:59;;;;;;;6.85;1.60;;;16.60;99.90;;;;;;5056534;28;20051;-54
2022/09/15 07:36:26;;;;;;;7.32;1.48;;;16.50;99.90;;;;;;5095525;28;20131;-54
2022/09/15 07:38:53;;;;;;;5.97;1.95;;;16.70;99.90;;;;;;5091209;28;20040;-47
2022/09/15 07:41:23;;;;;;;6.97;1.30;;;16.60;99.90;;;;;;5094877;28;20142;-54
2022/09/15 07:43:51;;;;;;;4.50;1.25;;;16.60;99.90;;;;;;5086991;28;20081;-54
2022/09/15 07:46:18;;;;;;;8.50;1.33;;;16.60;99.90;;;;;;5056007;28;20124;-56
2022/09/15 07:48:49;;;;;;;4.65;1.27;;;16.80;99.90;;;;;;5075399;28;20047;-55
2022/09/15 07:51:16;;;;;;;6.90;1.70;;;17.30;99.90;;;;;;5077548;28;20664;-55
2022/09/15 07:53:44;;;;;;;4.32;1.20;;;18.00;99.90;;;;;;5092027;28;20398;-56
2022/09/15 07:56:11;;;;;;;6.10;1.30;;;18.30;99.90;;;;;;5097756;28;20058;-48
2022/09/15 07:58:37;;;;;;;4.97;1.20;;;18.20;99.90;;;;;;5094388;28;20130;-46
2022/09/15 08:01:06;;;;;;;5.68;0.98;;;18.20;99.90;;;;;;5072150;28;20052;-46
2022/09/15 08:03:32;;;;;;;5.40;0.95;;;18.10;99.90;;;;;;5092841;28;20230;-45
2022/09/15 08:05:59;;;;;;;4.82;1.48;;;17.80;99.90;;;;;;5091667;28;20047;-47
2022/09/15 08:08:26;;;;;;;7.80;1.35;;;17.80;99.90;;;;;;5093557;28;20048;-54
2022/09/15 08:10:52;;;;;;;6.40;1.02;;;17.80;99.90;;;;;;5097437;28;20040;-54
2022/09/15 08:13:18;;;;;;;6.10;1.10;;;17.70;99.90;;;;;;5100033;28;20417;-55
2022/09/15 08:15:46;;;;;;;6.82;1.08;;;18.40;99.90;;;;;;5095898;28;20103;-55
2022/09/15 08:18:12;;;;;;;6.35;1.25;;;19.30;99.90;;;;;;5095772;28;20764;-44
2022/09/15 08:20:39;;;;;;;4.78;1.05;;;19.70;99.90;;;;;;5085127;28;20406;-54
2022/09/15 08:23:06;;;;;;;4.60;0.98;;;20.00;99.90;;;;;;5094098;28;20047;-55
2022/09/15 08:25:32;;;;;;;4.60;1.00;;;20.00;99.90;;;;;;5094212;28;20054;-55
2022/09/15 08:27:59;;;;;;;7.10;1.17;;;19.80;99.90;;;;;;5090036;28;20134;-55
2022/09/15 08:30:26;;;;;;;5.88;1.00;;;19.50;99.90;;;;;;5073985;28;20127;-54
2022/09/15 08:32:52;;;;;;;5.25;1.00;;;19.30;99.90;;;;;;5091716;28;20309;-52
2022/09/15 08:35:19;;;;;;;6.07;1.33;;;19.30;99.90;;;;;;5092253;27;20146;-55
2022/09/15 08:37:46;;;;;;;5.95;1.13;;;19.20;99.90;;;;;;5073740;27;20334;-48
2022/09/15 08:40:26;;;;;;;6.72;0.98;;;19.40;99.90;;;;;;5094757;27;20052;-48
2022/09/15 08:42:56;;;;;;;3.88;0.90;;;19.40;99.90;;;;;;5099455;28;20508;-53
2022/09/15 08:45:29;;;;;;;10.00;1.20;;;19.30;99.90;;;;;;5098567;28;20575;-54
2022/09/15 08:48:00;;;;;;;5.18;1.20;;;19.40;99.90;;;;;;5085322;27;20071;-54
2022/09/15 08:50:32;;;;;;;3.70;0.83;;;19.20;99.90;;;;;;5085610;27;20044;-53
2022/09/15 08:53:14;;;;;;;6.43;1.20;;;19.20;99.90;;;;;;5069856;28;20048;-55
2022/09/15 08:55:48;;;;;;;4.20;0.90;;;19.00;99.90;;;;;;5067449;27;20262;-54
2022/09/15 08:58:18;;;;;;;3.58;1.02;;;19.10;99.90;;;;;;5072295;27;20144;-47
2022/09/15 09:00:47;;;;;;;5.30;0.98;;;19.50;99.90;;;;;;5074183;27;20131;-48
2022/09/15 09:03:25;;;;;;;3.42;0.88;;;20.40;99.90;;;;;;5088273;27;20398;-43
2022/09/15 09:06:00;;;;;;;3.47;0.85;;;21.00;99.90;;;;;;5091900;27;20047;-49
2022/09/15 09:08:32;;;;;;;6.60;1.10;;;21.50;98.50;;;;;;5096377;28;20040;-47
2022/09/15 09:11:28;;;;;;;7.63;1.08;;;22.20;99.20;;;;;;5095466;28;20054;-50
2022/09/15 09:14:14;;;;;;;5.35;1.05;;;22.30;95.20;;;;;;5059749;28;20136;-47
2022/09/15 09:16:49;;;;;;;5.20;1.17;;;22.30;94.40;;;;;;5094527;27;20600;-48
2022/09/15 09:19:18;;;;;;;3.88;1.00;;;22.40;92.80;;;;;;5099360;27;20118;-46
2022/09/15 09:21:56;;;;;;;5.20;1.25;;;23.00;93.30;;;;;;5091806;27;20083;-47
2022/09/15 09:24:43;;;;;;;5.13;0.90;;;23.30;88.90;;;;;;5096613;27;20051;-45
2022/09/15 09:27:13;;;;;;;5.40;0.98;;;23.20;87.80;;;;;;5092106;27;20056;-48
2022/09/15 09:29:43;;;;;;;2.45;0.60;;;22.90;88.10;;;;;;5093169;27;20039;-45
2022/09/15 09:32:39;;;;;;;5.15;0.90;;;22.70;88.30;;;;;;5038020;27;20790;-56
2022/09/15 09:35:13;;;;;;;4.13;1.10;;;22.60;86.20;;;;;;5087346;27;20554;-56
2022/09/15 09:37:39;;;;;;;4.38;0.98;;;21.80;83.80;;;;;;5092828;27;20052;-54
2022/09/15 09:40:06;;;;;;;3.55;1.02;;;21.40;87.20;;;;;;5091407;27;20051;-49
2022/09/15 09:42:36;;;;;;;4.75;0.93;;;21.30;89.20;;;;;;5072521;27;20090;-56
2022/09/15 09:45:04;;;;;;;6.10;1.10;;;21.00;90.50;;;;;;5075811;27;20054;-55
2022/09/15 09:47:33;;;;;;;6.72;1.05;;;20.70;90.00;;;;;;5094051;27;20524;-47
2022/09/15 09:49:59;;;;;;;4.82;1.25;;;20.50;90.50;;;;;;5074664;27;20047;-55
2022/09/15 09:52:37;;;;;;;6.57;1.48;;;20.30;91.90;;;;;;5062198;27;20048;-56
2022/09/15 09:55:21;;;;;;;3.95;1.00;;;20.50;93.10;;;;;;5087400;27;20462;-54
2022/09/15 09:57:47;;;;;;;3.40;0.85;;;20.20;93.30;;;;;;5095769;27;20057;-53
2022/09/15 10:00:33;;;;;;;4.63;1.10;;;20.00;94.00;;;;;;5095154;27;20055;-54
2022/09/15 10:03:08;;;;;;;4.60;1.10;;;19.90;94.50;;;;;;5074500;27;20482;-54
2022/09/15 10:05:35;;;;;;;5.10;1.17;;;20.00;94.70;;;;;;5073921;27;20044;-54
2022/09/15 10:08:04;;;;;;;2.97;0.80;;;19.90;95.30;;;;;;5078078;27;20055;-54
2022/09/15 10:10:31;;;;;;;2.33;0.90;;;20.40;95.40;;;;;;5092730;27;20040;-55
2022/09/15 10:12:58;;;;;;;5.28;0.80;;;20.80;95.30;;;;;;5075512;27;20070;-55
2022/09/15 10:15:31;;;;;;;2.15;0.50;;;21.40;93.80;;;;;;5092355;27;20491;-56
2022/09/15 10:17:57;;;;;;;1.77;0.70;;;21.30;91.40;;;;;;5090819;27;20054;-56
2022/09/15 10:20:27;;;;;;;2.88;0.55;;;21.30;90.30;;;;;;5073897;27;20051;-56
2022/09/15 10:23:10;;;;;;;5.78;1.15;;;21.10;90.00;;;;;;5091016;27;20054;-48
2022/09/15 10:25:37;;;;;;;3.22;0.95;;;21.00;89.20;;;;;;5111461;27;20042;-47
2022/09/15 10:28:20;;;;;;;2.42;0.57;;;21.00;89.10;;;;;;5091814;27;20713;-45
2022/09/15 10:31:24;;;;;;;1.92;0.60;;;20.80;88.80;;;;;;5090057;27;20047;-45
2022/09/15 10:33:51;;;;;;;3.63;0.80;;;21.00;88.90;;;;;;5089248;27;20132;-44
2022/09/15 10:36:27;;;;;;;3.63;1.25;;;22.10;90.20;;;;;;5055525;27;20071;-49
2022/09/15 10:39:22;;;;;;;2.55;0.65;;;23.00;86.20;;;;;;5091157;27;20039;-46
2022/09/15 10:42:18;;;;;;;4.07;0.60;;;24.30;78.00;;;;;;5094194;27;20125;-50
2022/09/15 10:45:09;;;;;;;4.25;0.70;;;23.70;77.20;;;;;;5055166;27;20043;-44
2022/09/15 10:48:06;;;;;;;3.42;0.73;;;23.20;75.30;;;;;;5091689;27;20515;-51
2022/09/15 10:51:02;;;;;;;5.20;1.15;;;22.30;75.80;;;;;;5093799;27;20505;-56
2022/09/15 10:53:40;;;;;;;6.30;1.10;;;21.80;78.80;;;;;;5092324;27;20155;-54
2022/09/15 10:56:12;;;;;;;1.88;0.40;;;21.50;82.20;;;;;;5089096;27;20044;-46
2022/09/15 10:58:41;;;;;;;5.43;1.00;;;20.80;83.60;;;;;;5087696;27;20040;-45
2022/09/15 11:01:24;;;;;;;2.72;0.63;;;20.20;89.10;;;;;;5089229;27;20369;-49
2022/09/15 11:04:19;;;;;;;4.30;0.95;;;19.70;93.70;;;;;;5089391;27;20123;-44
2022/09/15 11:07:00;;;;;;;4.75;1.08;;;19.40;96.50;;;;;;5087303;27;20043;-43
2022/09/15 11:09:33;;;;;;;4.45;0.98;;;18.80;98.40;;;;;;5085077;27;20505;-45
2022/09/15 11:12:30;;;;;;;4.38;1.42;;;18.60;99.90;;;;;;5097034;27;20058;-45
2022/09/15 11:15:19;;;;;;;5.55;1.35;;;18.50;99.90;;;;;;5094810;27;20426;-46
2022/09/15 11:18:20;;;;;;;6.15;1.13;;;18.40;99.90;;;;;;5068703;28;20534;-45
2022/09/15 11:20:46;;;;;;;5.13;0.87;;;18.30;99.90;;;;;;5089084;27;20043;-43
2022/09/15 11:23:27;;;;;;;5.57;1.02;;;18.60;99.90;;;;;;5090654;28;20672;-44
2022/09/15 11:26:13;;;;;;;4.32;1.00;;;18.90;99.90;;;;;;5092898;27;20035;-46
2022/09/15 11:29:00;;;;;;;6.32;1.23;;;19.10;99.90;;;;;;5089172;27;20047;-45
2022/09/15 11:31:41;;;;;;;6.07;0.90;;;19.10;99.90;;;;;;5089351;28;20075;-49
2022/09/15 11:34:16;;;;;;;4.63;1.00;;;19.00;99.90;;;;;;5073793;28;20196;-45
2022/09/15 11:36:55;;;;;;;9.02;1.30;;;18.80;99.90;;;;;;5085094;28;20051;-49
2022/09/15 11:39:24;;;;;;;9.20;1.17;;;18.50;99.90;;;;;;5089823;28;20056;-46
2022/09/15 11:41:58;;;;;;;4.40;1.38;;;18.10;99.90;;;;;;5096449;28;20372;-49
2022/09/15 11:44:34;;;;;;;7.53;1.40;;;18.10;99.90;;;;;;5092224;28;20055;-49
2022/09/15 11:47:03;;;;;;;4.88;1.23;;;18.10;99.90;;;;;;5094301;28;20047;-48
2022/09/15 11:50:10;;;;;;;6.10;1.13;;;18.20;99.90;;;;;;5088126;28;20058;-45
2022/09/15 11:52:58;;;;;;;7.20;1.30;;;18.60;99.90;;;;;;5093176;28;20056;-50
2022/09/15 11:55:45;;;;;;;5.10;0.93;;;20.30;99.90;;;;;;5095848;28;20050;-46
2022/09/15 11:58:35;;;;;;;4.57;1.10;;;21.30;99.90;;;;;;5092430;28;20452;-46
2022/09/15 12:01:17;;;;;;;7.07;1.25;;;21.60;99.90;;;;;;5073187;28;20051;-45
2022/09/15 12:03:55;;;;;;;6.47;1.20;;;21.50;99.90;;;;;;5092809;28;20046;-45
2022/09/15 12:06:38;;;;;;;4.25;0.93;;;21.10;99.90;;;;;;5094767;28;20510;-48
2022/09/15 12:09:10;;;;;;;5.78;1.25;;;20.90;99.90;;;;;;5088197;28;20055;-46
2022/09/15 12:11:51;;;;;;;3.72;0.70;;;21.70;99.90;;;;;;5072231;27;20209;-45
2022/09/15 12:14:41;;;;;;;3.47;1.00;;;22.50;99.90;;;;;;5098313;27;20189;-46
2022/09/15 12:17:13;;;;;;;3.47;0.88;;;23.70;99.90;;;;;;5089338;27;20485;-45
2022/09/15 12:19:59;;;;;;;3.67;1.10;;;23.80;99.60;;;;;;5074487;27;20040;-55
2022/09/15 12:22:57;;;;;;;3.20;0.63;;;23.40;98.10;;;;;;5078188;28;20054;-54
2022/09/15 12:25:31;;;;;;;3.28;1.02;;;22.60;97.40;;;;;;5077506;27;20046;-53
2022/09/15 12:28:49;;;;;;;2.28;0.60;;;22.40;99.90;;;;;;5087955;27;20097;-56
2022/09/15 12:31:24;;;;;;;2.30;0.77;;;22.10;99.90;;;;;;5065278;27;20051;-54
2022/09/15 12:33:50;;;;;;;5.63;0.90;;;22.10;98.80;;;;;;5075091;27;20043;-56
2022/09/15 12:36:32;;;;;;;5.10;0.93;;;21.40;99.70;;;;;;5054247;27;20050;-54
2022/09/15 12:39:00;;;;;;;4.38;0.73;;;21.90;99.60;;;;;;5092054;27;20342;-54
2022/09/15 12:41:27;;;;;;;2.72;0.70;;;22.70;99.90;;;;;;5090330;27;20444;-55
2022/09/15 12:44:11;;;;;;;4.10;0.90;;;23.30;97.00;;;;;;5074999;27;20043;-44
2022/09/15 12:46:38;;;;;;;3.03;0.70;;;23.10;95.90;;;;;;5078129;28;20054;-46
2022/09/15 12:49:04;;;;;;;2.97;0.60;;;22.90;96.50;;;;;;5086232;27;20059;-46
2022/09/15 12:51:30;;;;;;;3.45;0.60;;;23.40;95.10;;;;;;5072552;27;20124;-44
2022/09/15 12:54:03;;;;;;;3.10;0.60;;;23.80;94.10;;;;;;5086460;27;20078;-46
2022/09/15 12:56:32;;;;;;;5.22;0.70;;;23.30;92.30;;;;;;5097007;27;20043;-48
2022/09/15 12:59:06;;;;;;;3.30;0.63;;;22.70;90.30;;;;;;5081935;28;20372;-45
2022/09/15 13:01:53;;;;;;;3.75;0.75;;;22.40;92.20;;;;;;5095148;27;20047;-44
2022/09/15 13:04:41;;;;;;;3.55;0.60;;;21.70;92.30;;;;;;5109198;27;21583;-52
2022/09/15 13:07:14;;;;;;;1.75;0.50;;;21.10;93.00;;;;;;5071727;27;20051;-51
2022/09/15 13:10:14;;;;;;;2.42;0.75;;;20.70;93.00;;;;;;5070176;28;20078;-52
2022/09/15 13:12:53;;;;;;;3.13;0.77;;;20.50;92.80;;;;;;5064544;28;20052;-54